This is the latest recevied weather packets stored in our database for station/object N4DRV. If no packets are shown the sender has not sent any weather packets the latest 10 day(s).
| Time | Temp. | Humidity | Pressure | Rain* | Wind** | Luminosity | Snow |
|---|---|---|---|---|---|---|---|
| 1777814742 | 11.67° C | 79% | 1021.9 hPa | 0 mm | - | - | - |
| 1777813559 | 10° C | 84% | 1021.9 hPa | 0 mm | - | - | - |
| 1777810533 | 7.22° C | 92% | 1021.7 hPa | 0 mm | - | - | - |
| 1777807526 | 5° C | 94% | 1021.3 hPa | 0 mm | - | - | - |
| 1777799727 | 6.11° C | 91% | 1019.9 hPa | 0 mm | - | - | - |
| 1777797922 | 6.11° C | 91% | 1019.9 hPa | 0 mm | - | - | - |
| 1777796723 | 6.67° C | 91% | 1019.8 hPa | 0 mm | - | - | - |
| 1777794918 | 6.67° C | 90% | 1019.4 hPa | 0 mm | - | - | - |
| 1777794316 | 6.67° C | 89% | 1019.4 hPa | 0 mm | - | - | - |
| 1777793133 | 7.22° C | 87% | 1019.2 hPa | 0 mm | - | - | - |
| 1777788347 | 8.89° C | 81% | 1019.1 hPa | 0 mm | - | - | - |
| 1777782949 | 10° C | 80% | 1018.7 hPa | 0 mm | - | - | - |
| 1777778718 | 10° C | 79% | 1018.3 hPa | 0 mm | - | - | - |
| 1777776933 | 10.56° C | 75% | 1018 hPa | 0 mm | - | - | - |
| 1777773950 | 11.67° C | 68% | 1017.2 hPa | 0 mm | - | - | - |
| 1777772124 | 13.33° C | 62% | 1016.7 hPa | 0 mm | - | - | - |
| 1777770924 | 14.44° C | 55% | 1016.5 hPa | 0 mm | - | - | - |
| 1777769721 | 15° C | 52% | 1016.3 hPa | 0 mm | - | - | - |
| 1777767317 | 16.11° C | 47% | 1015.8 hPa | 0 mm | - | - | - |
| 1777766130 | 17.22° C | 44% | 1015.4 hPa | 0 mm | - | - | - |
| 1777765548 | 17.22° C | 43% | 1015.3 hPa | 0 mm | - | - | - |
| 1777763746 | 17.78° C | 44% | 1015.1 hPa | 0 mm | - | - | - |
| 1777763149 | 17.78° C | 45% | 1015 hPa | 0 mm | - | - | - |
| 1777752341 | 18.89° C | 44% | 1013.8 hPa | 0 mm | - | - | - |
| 1777743340 | 18.33° C | 60% | 1014.1 hPa | 0 mm | - | - | - |
* Rain latest hour (hover to see other rain measurements)
** Current wind speed in m/s (hover to see current wind gust speed)